sensor_id;sensor_type;location;lat;lon;timestamp;pressure;altitude;pressure_sealevel;temperature;humidity
39937;BME280;27803;42.740;23.340;2023-08-06T00:00:26;94449.56;;;20.81;100.00
39937;BME280;27803;42.740;23.340;2023-08-06T00:02:52;94456.72;;;21.47;100.00
39937;BME280;27803;42.740;23.340;2023-08-06T00:05:17;94443.13;;;21.49;100.00
39937;BME280;27803;42.740;23.340;2023-08-06T00:07:52;94389.09;;;20.73;100.00
39937;BME280;27803;42.740;23.340;2023-08-06T00:10:17;94421.75;;;20.26;100.00
39937;BME280;27803;42.740;23.340;2023-08-06T00:12:44;94456.38;;;20.44;100.00
39937;BME280;27803;42.740;23.340;2023-08-06T00:15:10;94449.56;;;20.81;100.00
39937;BME280;27803;42.740;23.340;2023-08-06T00:17:35;94441.50;;;21.10;100.00
39937;BME280;27803;42.740;23.340;2023-08-06T00:20:02;94456.22;;;21.21;100.00
39937;BME280;27803;42.740;23.340;2023-08-06T00:22:31;94423.88;;;20.95;100.00
39937;BME280;27803;42.740;23.340;2023-08-06T00:24:57;94410.00;;;20.98;100.00
39937;BME280;27803;42.740;23.340;2023-08-06T00:27:22;94408.84;;;20.67;100.00
39937;BME280;27803;42.740;23.340;2023-08-06T00:29:48;94417.34;;;20.16;100.00
39937;BME280;27803;42.740;23.340;2023-08-06T00:32:13;94419.75;;;20.41;100.00
39937;BME280;27803;42.740;23.340;2023-08-06T00:34:39;94435.50;;;20.99;100.00
39937;BME280;27803;42.740;23.340;2023-08-06T00:37:04;94417.81;;;21.51;100.00
39937;BME280;27803;42.740;23.340;2023-08-06T00:39:29;94394.91;;;21.69;100.00
39937;BME280;27803;42.740;23.340;2023-08-06T00:41:55;94384.72;;;21.57;100.00
39937;BME280;27803;42.740;23.340;2023-08-06T00:44:20;94378.22;;;21.96;100.00
39937;BME280;27803;42.740;23.340;2023-08-06T00:46:46;94375.13;;;22.21;100.00
39937;BME280;27803;42.740;23.340;2023-08-06T00:49:11;94387.94;;;22.74;100.00
39937;BME280;27803;42.740;23.340;2023-08-06T00:51:37;94399.59;;;22.92;100.00
39937;BME280;27803;42.740;23.340;2023-08-06T00:54:03;94404.06;;;23.32;100.00
39937;BME280;27803;42.740;23.340;2023-08-06T00:56:28;94394.16;;;23.33;100.00
39937;BME280;27803;42.740;23.340;2023-08-06T00:58:54;94369.53;;;23.14;100.00
39937;BME280;27803;42.740;23.340;2023-08-06T01:01:20;94382.97;;;23.09;100.00
39937;BME280;27803;42.740;23.340;2023-08-06T01:03:46;94375.56;;;23.05;100.00
39937;BME280;27803;42.740;23.340;2023-08-06T01:06:11;94382.53;;;23.29;100.00
39937;BME280;27803;42.740;23.340;2023-08-06T01:08:58;94369.91;;;23.43;100.00
39937;BME280;27803;42.740;23.340;2023-08-06T01:11:38;94350.16;;;23.66;100.00
39937;BME280;27803;42.740;23.340;2023-08-06T01:14:17;94335.72;;;23.23;100.00
39937;BME280;27803;42.740;23.340;2023-08-06T01:16:43;94348.19;;;23.36;100.00
39937;BME280;27803;42.740;23.340;2023-08-06T01:19:16;94367.63;;;23.50;100.00
39937;BME280;27803;42.740;23.340;2023-08-06T01:21:42;94377.84;;;23.71;100.00
39937;BME280;27803;42.740;23.340;2023-08-06T01:24:07;94350.78;;;23.63;100.00
39937;BME280;27803;42.740;23.340;2023-08-06T01:26:38;94337.31;;;23.68;100.00
39937;BME280;27803;42.740;23.340;2023-08-06T01:29:18;94342.09;;;23.58;100.00
39937;BME280;27803;42.740;23.340;2023-08-06T01:31:48;94340.19;;;23.36;100.00
39937;BME280;27803;42.740;23.340;2023-08-06T01:34:21;94340.06;;;23.19;100.00
39937;BME280;27803;42.740;23.340;2023-08-06T01:36:48;94351.09;;;23.26;100.00
39937;BME280;27803;42.740;23.340;2023-08-06T01:39:13;94328.19;;;22.89;100.00
39937;BME280;27803;42.740;23.340;2023-08-06T01:41:39;94333.38;;;23.08;100.00
39937;BME280;27803;42.740;23.340;2023-08-06T01:44:04;94339.47;;;23.22;100.00
39937;BME280;27803;42.740;23.340;2023-08-06T01:46:29;94318.56;;;23.37;100.00
39937;BME280;27803;42.740;23.340;2023-08-06T01:48:55;94338.56;;;23.49;100.00
39937;BME280;27803;42.740;23.340;2023-08-06T01:51:20;94328.94;;;23.61;100.00
39937;BME280;27803;42.740;23.340;2023-08-06T01:53:46;94336.25;;;23.33;100.00
39937;BME280;27803;42.740;23.340;2023-08-06T01:56:11;94324.91;;;23.05;100.00
39937;BME280;27803;42.740;23.340;2023-08-06T01:58:36;94336.56;;;23.32;100.00
39937;BME280;27803;42.740;23.340;2023-08-06T02:01:02;94341.16;;;23.40;100.00
39937;BME280;27803;42.740;23.340;2023-08-06T02:03:27;94319.22;;;23.43;100.00
39937;BME280;27803;42.740;23.340;2023-08-06T02:05:53;94308.84;;;23.19;100.00
39937;BME280;27803;42.740;23.340;2023-08-06T02:08:18;94322.22;;;23.05;100.00
39937;BME280;27803;42.740;23.340;2023-08-06T02:10:45;94320.41;;;23.15;100.00
39937;BME280;27803;42.740;23.340;2023-08-06T02:13:10;94316.03;;;22.96;100.00
39937;BME280;27803;42.740;23.340;2023-08-06T02:15:35;94320.75;;;22.99;100.00
39937;BME280;27803;42.740;23.340;2023-08-06T02:18:01;94323.63;;;22.39;100.00
39937;BME280;27803;42.740;23.340;2023-08-06T02:20:26;94316.50;;;21.94;100.00
39937;BME280;27803;42.740;23.340;2023-08-06T02:22:52;94318.34;;;21.80;100.00
39937;BME280;27803;42.740;23.340;2023-08-06T02:25:17;94344.28;;;21.88;100.00
39937;BME280;27803;42.740;23.340;2023-08-06T02:27:42;94344.94;;;22.26;100.00
39937;BME280;27803;42.740;23.340;2023-08-06T02:30:08;94358.75;;;22.42;100.00
39937;BME280;27803;42.740;23.340;2023-08-06T02:32:33;94359.31;;;22.66;100.00
39937;BME280;27803;42.740;23.340;2023-08-06T02:35:01;94368.00;;;22.85;100.00
39937;BME280;27803;42.740;23.340;2023-08-06T02:37:27;94334.63;;;22.74;100.00
39937;BME280;27803;42.740;23.340;2023-08-06T02:39:52;94330.53;;;22.13;100.00
39937;BME280;27803;42.740;23.340;2023-08-06T02:42:18;94345.22;;;21.64;100.00
39937;BME280;27803;42.740;23.340;2023-08-06T02:44:43;94361.72;;;21.48;100.00
39937;BME280;27803;42.740;23.340;2023-08-06T02:47:09;94391.44;;;22.01;100.00
39937;BME280;27803;42.740;23.340;2023-08-06T02:49:34;94386.19;;;22.42;100.00
39937;BME280;27803;42.740;23.340;2023-08-06T02:51:59;94380.28;;;22.31;100.00
39937;BME280;27803;42.740;23.340;2023-08-06T02:54:25;94364.66;;;22.11;100.00
39937;BME280;27803;42.740;23.340;2023-08-06T02:56:50;94360.09;;;21.98;100.00
39937;BME280;27803;42.740;23.340;2023-08-06T02:59:16;94351.19;;;21.89;100.00
39937;BME280;27803;42.740;23.340;2023-08-06T03:01:41;94334.91;;;21.76;100.00
39937;BME280;27803;42.740;23.340;2023-08-06T03:04:07;94311.72;;;21.12;100.00
39937;BME280;27803;42.740;23.340;2023-08-06T03:06:32;94318.97;;;21.06;100.00
39937;BME280;27803;42.740;23.340;2023-08-06T03:08:57;94314.25;;;21.03;100.00
39937;BME280;27803;42.740;23.340;2023-08-06T03:11:23;94322.69;;;20.73;100.00
39937;BME280;27803;42.740;23.340;2023-08-06T03:13:48;94335.97;;;20.73;100.00
39937;BME280;27803;42.740;23.340;2023-08-06T03:16:14;94311.88;;;20.45;100.00
39937;BME280;27803;42.740;23.340;2023-08-06T03:18:39;94249.72;;;19.51;100.00
39937;BME280;27803;42.740;23.340;2023-08-06T03:21:05;94229.19;;;19.09;100.00
39937;BME280;27803;42.740;23.340;2023-08-06T03:23:30;94270.38;;;19.59;100.00
39937;BME280;27803;42.740;23.340;2023-08-06T03:25:56;94260.13;;;20.19;100.00
39937;BME280;27803;42.740;23.340;2023-08-06T03:28:21;94214.16;;;19.81;100.00
39937;BME280;27803;42.740;23.340;2023-08-06T03:30:47;94255.34;;;20.21;100.00
39937;BME280;27803;42.740;23.340;2023-08-06T03:33:13;94282.16;;;20.43;100.00
39937;BME280;27803;42.740;23.340;2023-08-06T03:35:38;94313.97;;;20.86;100.00
39937;BME280;27803;42.740;23.340;2023-08-06T03:38:03;94350.72;;;21.54;100.00
39937;BME280;27803;42.740;23.340;2023-08-06T03:40:29;94369.94;;;21.97;100.00
39937;BME280;27803;42.740;23.340;2023-08-06T03:42:54;94381.63;;;22.15;100.00
39937;BME280;27803;42.740;23.340;2023-08-06T03:45:19;94355.78;;;22.16;100.00
39937;BME280;27803;42.740;23.340;2023-08-06T03:47:45;94360.69;;;21.62;100.00
39937;BME280;27803;42.740;23.340;2023-08-06T03:50:10;94334.06;;;21.11;100.00
39937;BME280;27803;42.740;23.340;2023-08-06T03:52:36;94360.78;;;21.20;100.00
39937;BME280;27803;42.740;23.340;2023-08-06T03:55:01;94347.38;;;21.62;100.00
39937;BME280;27803;42.740;23.340;2023-08-06T03:57:26;94344.94;;;22.39;100.00
39937;BME280;27803;42.740;23.340;2023-08-06T03:59:52;94330.78;;;22.66;100.00
39937;BME280;27803;42.740;23.340;2023-08-06T04:02:17;94352.75;;;22.99;100.00
39937;BME280;27803;42.740;23.340;2023-08-06T04:04:43;94343.97;;;23.35;100.00
39937;BME280;27803;42.740;23.340;2023-08-06T04:07:08;94338.63;;;23.35;100.00
39937;BME280;27803;42.740;23.340;2023-08-06T04:09:34;94360.94;;;23.39;100.00
39937;BME280;27803;42.740;23.340;2023-08-06T04:11:59;94340.72;;;23.60;100.00
39937;BME280;27803;42.740;23.340;2023-08-06T04:14:26;94355.50;;;23.66;100.00
39937;BME280;27803;42.740;23.340;2023-08-06T04:16:52;94362.59;;;23.71;100.00
39937;BME280;27803;42.740;23.340;2023-08-06T04:19:17;94368.31;;;23.56;100.00
39937;BME280;27803;42.740;23.340;2023-08-06T04:21:42;94368.09;;;23.30;100.00
39937;BME280;27803;42.740;23.340;2023-08-06T04:24:08;94364.19;;;23.14;100.00
39937;BME280;27803;42.740;23.340;2023-08-06T04:26:33;94365.47;;;22.53;100.00
39937;BME280;27803;42.740;23.340;2023-08-06T04:28:59;94369.13;;;22.43;100.00
39937;BME280;27803;42.740;23.340;2023-08-06T04:31:24;94354.19;;;22.56;100.00
39937;BME280;27803;42.740;23.340;2023-08-06T04:33:49;94335.66;;;22.51;100.00
39937;BME280;27803;42.740;23.340;2023-08-06T04:36:15;94342.53;;;22.79;100.00
39937;BME280;27803;42.740;23.340;2023-08-06T04:38:40;94330.09;;;22.61;100.00
39937;BME280;27803;42.740;23.340;2023-08-06T04:41:10;94329.09;;;22.84;100.00
39937;BME280;27803;42.740;23.340;2023-08-06T04:43:35;94309.81;;;22.37;100.00
39937;BME280;27803;42.740;23.340;2023-08-06T04:46:01;94303.22;;;21.61;100.00
39937;BME280;27803;42.740;23.340;2023-08-06T04:48:26;94295.84;;;21.58;100.00
39937;BME280;27803;42.740;23.340;2023-08-06T04:50:51;94301.88;;;21.12;100.00
39937;BME280;27803;42.740;23.340;2023-08-06T04:53:17;94266.91;;;21.38;100.00
39937;BME280;27803;42.740;23.340;2023-08-06T04:55:42;94285.66;;;21.47;100.00
39937;BME280;27803;42.740;23.340;2023-08-06T04:58:12;94274.88;;;21.98;100.00
39937;BME280;27803;42.740;23.340;2023-08-06T05:00:37;94268.56;;;21.66;100.00
39937;BME280;27803;42.740;23.340;2023-08-06T05:03:03;94272.00;;;21.81;100.00
39937;BME280;27803;42.740;23.340;2023-08-06T05:05:28;94281.78;;;21.99;100.00
39937;BME280;27803;42.740;23.340;2023-08-06T05:07:55;94283.00;;;22.20;100.00
39937;BME280;27803;42.740;23.340;2023-08-06T05:10:27;94283.59;;;22.17;100.00
39937;BME280;27803;42.740;23.340;2023-08-06T05:12:53;94295.59;;;22.01;100.00
39937;BME280;27803;42.740;23.340;2023-08-06T05:15:19;94284.34;;;21.30;100.00
39937;BME280;27803;42.740;23.340;2023-08-06T05:17:44;94291.91;;;21.23;100.00
39937;BME280;27803;42.740;23.340;2023-08-06T05:20:10;94303.44;;;21.13;100.00
39937;BME280;27803;42.740;23.340;2023-08-06T05:22:36;94309.13;;;21.58;100.00
39937;BME280;27803;42.740;23.340;2023-08-06T05:25:01;94310.06;;;21.35;100.00
39937;BME280;27803;42.740;23.340;2023-08-06T05:27:27;94305.16;;;21.42;100.00
39937;BME280;27803;42.740;23.340;2023-08-06T05:29:55;94308.72;;;21.51;100.00
39937;BME280;27803;42.740;23.340;2023-08-06T05:32:21;94301.75;;;21.55;100.00
39937;BME280;27803;42.740;23.340;2023-08-06T05:34:47;94293.66;;;22.34;100.00
39937;BME280;27803;42.740;23.340;2023-08-06T05:37:12;94299.66;;;22.39;100.00
39937;BME280;27803;42.740;23.340;2023-08-06T05:39:38;94285.34;;;21.94;100.00
39937;BME280;27803;42.740;23.340;2023-08-06T05:42:03;94283.16;;;21.83;100.00
39937;BME280;27803;42.740;23.340;2023-08-06T05:44:29;94280.69;;;21.72;100.00
39937;BME280;27803;42.740;23.340;2023-08-06T05:46:54;94285.94;;;21.45;100.00
39937;BME280;27803;42.740;23.340;2023-08-06T05:49:19;94276.22;;;21.22;100.00
39937;BME280;27803;42.740;23.340;2023-08-06T05:51:45;94284.69;;;21.56;100.00
39937;BME280;27803;42.740;23.340;2023-08-06T05:54:10;94271.84;;;22.04;100.00
39937;BME280;27803;42.740;23.340;2023-08-06T05:56:35;94283.38;;;22.00;100.00
39937;BME280;27803;42.740;23.340;2023-08-06T05:59:01;94291.69;;;22.12;100.00
39937;BME280;27803;42.740;23.340;2023-08-06T06:01:26;94283.19;;;22.37;100.00
39937;BME280;27803;42.740;23.340;2023-08-06T06:03:51;94282.78;;;22.44;100.00
39937;BME280;27803;42.740;23.340;2023-08-06T06:06:17;94322.44;;;22.46;100.00
39937;BME280;27803;42.740;23.340;2023-08-06T06:08:44;94327.38;;;22.38;100.00
39937;BME280;27803;42.740;23.340;2023-08-06T06:11:09;94324.81;;;22.06;100.00
39937;BME280;27803;42.740;23.340;2023-08-06T06:13:35;94330.72;;;22.03;100.00
39937;BME280;27803;42.740;23.340;2023-08-06T06:16:00;94329.75;;;22.26;100.00
39937;BME280;27803;42.740;23.340;2023-08-06T06:18:25;94336.31;;;22.01;100.00
39937;BME280;27803;42.740;23.340;2023-08-06T06:20:51;94317.47;;;21.98;100.00
39937;BME280;27803;42.740;23.340;2023-08-06T06:23:16;94337.34;;;22.47;100.00
39937;BME280;27803;42.740;23.340;2023-08-06T06:25:51;94351.81;;;22.68;100.00
39937;BME280;27803;42.740;23.340;2023-08-06T06:28:17;94350.28;;;22.53;100.00
39937;BME280;27803;42.740;23.340;2023-08-06T06:30:43;94357.19;;;22.40;100.00
39937;BME280;27803;42.740;23.340;2023-08-06T06:33:08;94368.03;;;22.30;100.00
39937;BME280;27803;42.740;23.340;2023-08-06T06:35:34;94348.84;;;22.56;100.00
39937;BME280;27803;42.740;23.340;2023-08-06T06:37:59;94364.06;;;22.83;100.00
39937;BME280;27803;42.740;23.340;2023-08-06T06:40:25;94351.69;;;22.73;100.00
39937;BME280;27803;42.740;23.340;2023-08-06T06:42:50;94375.94;;;22.35;100.00
39937;BME280;27803;42.740;23.340;2023-08-06T06:45:16;94365.03;;;22.59;100.00
39937;BME280;27803;42.740;23.340;2023-08-06T06:47:41;94387.31;;;23.04;100.00
39937;BME280;27803;42.740;23.340;2023-08-06T06:50:07;94377.16;;;23.07;100.00
39937;BME280;27803;42.740;23.340;2023-08-06T06:52:32;94393.13;;;23.56;100.00
39937;BME280;27803;42.740;23.340;2023-08-06T06:54:58;94397.13;;;23.90;100.00
39937;BME280;27803;42.740;23.340;2023-08-06T06:57:23;94376.38;;;23.87;100.00
39937;BME280;27803;42.740;23.340;2023-08-06T06:59:49;94391.00;;;24.20;100.00
39937;BME280;27803;42.740;23.340;2023-08-06T07:02:14;94389.81;;;24.26;100.00
39937;BME280;27803;42.740;23.340;2023-08-06T07:04:39;94409.88;;;24.24;100.00
39937;BME280;27803;42.740;23.340;2023-08-06T07:07:05;94401.09;;;24.23;100.00
39937;BME280;27803;42.740;23.340;2023-08-06T07:09:30;94389.22;;;24.07;100.00
39937;BME280;27803;42.740;23.340;2023-08-06T07:11:55;94410.19;;;24.22;98.57
39937;BME280;27803;42.740;23.340;2023-08-06T07:14:21;94411.69;;;24.06;99.41
39937;BME280;27803;42.740;23.340;2023-08-06T07:16:46;94400.91;;;24.20;99.35
39937;BME280;27803;42.740;23.340;2023-08-06T07:19:11;94412.88;;;24.22;99.61
39937;BME280;27803;42.740;23.340;2023-08-06T07:21:37;94417.06;;;24.46;100.00
39937;BME280;27803;42.740;23.340;2023-08-06T07:24:02;94413.22;;;24.29;94.60
39937;BME280;27803;42.740;23.340;2023-08-06T07:26:28;94417.81;;;24.38;95.81
39937;BME280;27803;42.740;23.340;2023-08-06T07:28:53;94419.19;;;24.66;94.01
39937;BME280;27803;42.740;23.340;2023-08-06T07:31:19;94424.72;;;24.70;92.02
39937;BME280;27803;42.740;23.340;2023-08-06T07:33:44;94421.84;;;25.06;93.82
39937;BME280;27803;42.740;23.340;2023-08-06T07:36:13;94426.63;;;24.78;91.73
39937;BME280;27803;42.740;23.340;2023-08-06T07:38:39;94411.69;;;24.85;91.62
39937;BME280;27803;42.740;23.340;2023-08-06T07:41:05;94424.88;;;24.73;91.70
39937;BME280;27803;42.740;23.340;2023-08-06T07:43:31;94422.31;;;24.28;93.44
39937;BME280;27803;42.740;23.340;2023-08-06T07:46:00;94418.91;;;24.37;93.74
39937;BME280;27803;42.740;23.340;2023-08-06T07:48:26;94412.66;;;24.10;93.50
39937;BME280;27803;42.740;23.340;2023-08-06T07:50:55;94406.59;;;23.74;95.87
39937;BME280;27803;42.740;23.340;2023-08-06T07:53:25;94412.59;;;24.01;96.99
39937;BME280;27803;42.740;23.340;2023-08-06T07:55:55;94411.19;;;24.26;94.85
39937;BME280;27803;42.740;23.340;2023-08-06T07:58:21;94407.94;;;24.47;94.06
39937;BME280;27803;42.740;23.340;2023-08-06T08:00:47;94391.94;;;24.55;95.18
39937;BME280;27803;42.740;23.340;2023-08-06T08:03:13;94407.41;;;24.76;91.88
39937;BME280;27803;42.740;23.340;2023-08-06T08:05:40;94407.06;;;25.17;92.54
39937;BME280;27803;42.740;23.340;2023-08-06T08:08:06;94401.84;;;24.55;89.47
39937;BME280;27803;42.740;23.340;2023-08-06T08:10:32;94413.16;;;24.52;90.31
39937;BME280;27803;42.740;23.340;2023-08-06T08:12:57;94401.94;;;24.41;90.03
39937;BME280;27803;42.740;23.340;2023-08-06T08:15:24;94400.38;;;24.88;91.13
39937;BME280;27803;42.740;23.340;2023-08-06T08:17:51;94385.38;;;25.44;91.34
39937;BME280;27803;42.740;23.340;2023-08-06T08:20:17;94394.50;;;25.78;87.16
39937;BME280;27803;42.740;23.340;2023-08-06T08:22:42;94409.91;;;25.29;84.67
39937;BME280;27803;42.740;23.340;2023-08-06T08:25:08;94406.97;;;24.82;87.43
39937;BME280;27803;42.740;23.340;2023-08-06T08:27:33;94409.84;;;24.94;87.61
39937;BME280;27803;42.740;23.340;2023-08-06T08:29:59;94409.94;;;25.38;85.97
39937;BME280;27803;42.740;23.340;2023-08-06T08:32:24;94404.56;;;25.98;88.36
39937;BME280;27803;42.740;23.340;2023-08-06T08:34:49;94407.25;;;25.98;83.72
39937;BME280;27803;42.740;23.340;2023-08-06T08:37:15;94395.28;;;25.87;81.51
39937;BME280;27803;42.740;23.340;2023-08-06T08:39:40;94396.72;;;25.76;78.82
39937;BME280;27803;42.740;23.340;2023-08-06T08:42:06;94392.28;;;25.97;80.92
39937;BME280;27803;42.740;23.340;2023-08-06T08:44:32;94406.06;;;26.34;80.24
39937;BME280;27803;42.740;23.340;2023-08-06T08:46:59;94387.69;;;26.53;79.19
39937;BME280;27803;42.740;23.340;2023-08-06T08:49:26;94379.59;;;27.00;80.92
39937;BME280;27803;42.740;23.340;2023-08-06T08:51:53;94406.38;;;26.23;78.04
39937;BME280;27803;42.740;23.340;2023-08-06T08:54:22;94390.78;;;26.17;76.26
39937;BME280;27803;42.740;23.340;2023-08-06T08:56:48;94382.69;;;25.79;77.73
39937;BME280;27803;42.740;23.340;2023-08-06T08:59:13;94383.25;;;26.02;79.56
39937;BME280;27803;42.740;23.340;2023-08-06T09:01:40;94390.69;;;25.96;78.08
39937;BME280;27803;42.740;23.340;2023-08-06T09:04:07;94384.56;;;25.96;79.67
39937;BME280;27803;42.740;23.340;2023-08-06T09:06:36;94371.75;;;26.56;79.50
39937;BME280;27803;42.740;23.340;2023-08-06T09:09:08;94364.41;;;27.04;80.41
39937;BME280;27803;42.740;23.340;2023-08-06T09:11:37;94364.63;;;27.40;75.68
39937;BME280;27803;42.740;23.340;2023-08-06T09:14:06;94367.97;;;27.37;73.17
39937;BME280;27803;42.740;23.340;2023-08-06T09:16:34;94368.47;;;26.80;71.08
39937;BME280;27803;42.740;23.340;2023-08-06T09:19:10;94354.06;;;27.35;78.88
39937;BME280;27803;42.740;23.340;2023-08-06T09:21:38;94361.41;;;27.68;72.23
39937;BME280;27803;42.740;23.340;2023-08-06T09:24:08;94372.28;;;27.71;70.05
39937;BME280;27803;42.740;23.340;2023-08-06T09:26:34;94363.63;;;27.66;64.86
39937;BME280;27803;42.740;23.340;2023-08-06T09:29:00;94345.41;;;27.71;66.67
39937;BME280;27803;42.740;23.340;2023-08-06T09:31:32;94350.41;;;26.98;67.61
39937;BME280;27803;42.740;23.340;2023-08-06T09:33:59;94346.03;;;27.35;71.57
39937;BME280;27803;42.740;23.340;2023-08-06T09:36:27;94354.34;;;27.75;68.21
39937;BME280;27803;42.740;23.340;2023-08-06T09:38:52;94347.19;;;27.79;63.44
39937;BME280;27803;42.740;23.340;2023-08-06T09:41:27;94351.84;;;28.03;64.13
39937;BME280;27803;42.740;23.340;2023-08-06T09:43:53;94340.91;;;28.20;69.37
39937;BME280;27803;42.740;23.340;2023-08-06T09:46:19;94332.31;;;27.70;62.98
39937;BME280;27803;42.740;23.340;2023-08-06T09:52:10;94338.38;;;27.91;64.09
39937;BME280;27803;42.740;23.340;2023-08-06T09:54:37;94327.16;;;27.77;61.18
39937;BME280;27803;42.740;23.340;2023-08-06T09:57:02;94338.94;;;28.30;66.56
39937;BME280;27803;42.740;23.340;2023-08-06T09:59:29;94339.34;;;28.19;60.40
39937;BME280;27803;42.740;23.340;2023-08-06T10:01:56;94334.22;;;27.81;61.14
39937;BME280;27803;42.740;23.340;2023-08-06T10:04:21;94352.53;;;28.00;61.93
39937;BME280;27803;42.740;23.340;2023-08-06T10:06:47;94338.94;;;27.84;61.45
39937;BME280;27803;42.740;23.340;2023-08-06T10:09:14;94345.69;;;28.03;60.41
39937;BME280;27803;42.740;23.340;2023-08-06T10:11:40;94348.81;;;27.93;55.68
39937;BME280;27803;42.740;23.340;2023-08-06T10:14:11;94337.03;;;27.52;57.66
39937;BME280;27803;42.740;23.340;2023-08-06T10:16:39;94375.09;;;27.87;58.52
39937;BME280;27803;42.740;23.340;2023-08-06T10:19:07;94356.81;;;28.13;59.20
39937;BME280;27803;42.740;23.340;2023-08-06T10:21:34;94350.72;;;27.92;59.39
39937;BME280;27803;42.740;23.340;2023-08-06T10:23:59;94368.31;;;28.02;60.64
39937;BME280;27803;42.740;23.340;2023-08-06T10:26:29;94362.19;;;27.47;58.80
39937;BME280;27803;42.740;23.340;2023-08-06T10:28:55;94351.66;;;26.92;59.75
39937;BME280;27803;42.740;23.340;2023-08-06T10:31:53;94363.31;;;26.96;62.13
39937;BME280;27803;42.740;23.340;2023-08-06T10:34:20;94365.22;;;26.96;63.58
39937;BME280;27803;42.740;23.340;2023-08-06T10:36:46;94334.63;;;26.67;64.62
39937;BME280;27803;42.740;23.340;2023-08-06T10:39:13;94364.16;;;27.38;66.29
39937;BME280;27803;42.740;23.340;2023-08-06T10:41:42;94365.41;;;27.62;68.27
39937;BME280;27803;42.740;23.340;2023-08-06T10:44:09;94378.28;;;28.01;64.22
39937;BME280;27803;42.740;23.340;2023-08-06T10:46:35;94381.53;;;27.95;60.36
39937;BME280;27803;42.740;23.340;2023-08-06T10:49:01;94376.19;;;27.74;60.20
39937;BME280;27803;42.740;23.340;2023-08-06T10:51:27;94384.28;;;27.86;60.68
39937;BME280;27803;42.740;23.340;2023-08-06T10:53:53;94376.75;;;27.67;60.43
39937;BME280;27803;42.740;23.340;2023-08-06T10:56:20;94378.84;;;27.62;58.15
39937;BME280;27803;42.740;23.340;2023-08-06T10:58:50;94383.22;;;27.99;61.04
39937;BME280;27803;42.740;23.340;2023-08-06T11:01:16;94369.81;;;28.11;57.50
39937;BME280;27803;42.740;23.340;2023-08-06T11:03:44;94381.53;;;28.40;57.88
39937;BME280;27803;42.740;23.340;2023-08-06T11:06:10;94386.19;;;28.18;54.35
39937;BME280;27803;42.740;23.340;2023-08-06T11:08:38;94391.91;;;27.84;55.44
39937;BME280;27803;42.740;23.340;2023-08-06T11:11:11;94398.59;;;27.15;58.25
39937;BME280;27803;42.740;23.340;2023-08-06T11:13:47;94406.97;;;27.14;65.17
39937;BME280;27803;42.740;23.340;2023-08-06T11:16:21;94415.72;;;26.64;69.50
39937;BME280;27803;42.740;23.340;2023-08-06T11:18:49;94422.38;;;26.58;78.71
39937;BME280;27803;42.740;23.340;2023-08-06T11:21:19;94418.00;;;26.45;78.51
39937;BME280;27803;42.740;23.340;2023-08-06T11:23:44;94417.66;;;26.55;80.04
39937;BME280;27803;42.740;23.340;2023-08-06T11:26:09;94398.53;;;26.65;77.22
39937;BME280;27803;42.740;23.340;2023-08-06T11:28:35;94410.06;;;26.57;79.70
39937;BME280;27803;42.740;23.340;2023-08-06T11:31:00;94417.91;;;26.07;70.61
39937;BME280;27803;42.740;23.340;2023-08-06T11:33:28;94406.00;;;25.87;74.96
39937;BME280;27803;42.740;23.340;2023-08-06T11:35:58;94401.91;;;25.72;69.96
39937;BME280;27803;42.740;23.340;2023-08-06T11:38:29;94394.22;;;25.71;71.17
39937;BME280;27803;42.740;23.340;2023-08-06T11:40:55;94402.53;;;25.86;71.45
39937;BME280;27803;42.740;23.340;2023-08-06T11:43:21;94399.13;;;26.33;72.04
39937;BME280;27803;42.740;23.340;2023-08-06T11:45:48;94373.91;;;26.92;69.65
39937;BME280;27803;42.740;23.340;2023-08-06T11:48:14;94383.44;;;27.61;65.25
39937;BME280;27803;42.740;23.340;2023-08-06T11:50:39;94380.78;;;28.06;60.45
39937;BME280;27803;42.740;23.340;2023-08-06T11:53:05;94373.06;;;28.17;56.75
39937;BME280;27803;42.740;23.340;2023-08-06T11:55:38;94352.34;;;28.17;55.41
39937;BME280;27803;42.740;23.340;2023-08-06T11:58:03;94372.06;;;28.22;52.95
39937;BME280;27803;42.740;23.340;2023-08-06T12:00:32;94352.84;;;28.32;53.57
39937;BME280;27803;42.740;23.340;2023-08-06T12:02:58;94370.34;;;28.50;52.70
39937;BME280;27803;42.740;23.340;2023-08-06T12:08:45;94370.78;;;28.64;52.34
39937;BME280;27803;42.740;23.340;2023-08-06T12:11:11;94364.06;;;28.70;53.82
39937;BME280;27803;42.740;23.340;2023-08-06T12:13:36;94364.06;;;28.46;50.83
39937;BME280;27803;42.740;23.340;2023-08-06T12:16:01;94365.16;;;28.33;52.21
39937;BME280;27803;42.740;23.340;2023-08-06T12:18:27;94377.41;;;28.09;52.84
39937;BME280;27803;42.740;23.340;2023-08-06T12:20:52;94371.34;;;28.00;53.39
39937;BME280;27803;42.740;23.340;2023-08-06T12:23:18;94366.69;;;28.22;54.62
39937;BME280;27803;42.740;23.340;2023-08-06T12:25:43;94344.50;;;28.12;51.62
39937;BME280;27803;42.740;23.340;2023-08-06T12:28:10;94361.34;;;28.34;54.50
39937;BME280;27803;42.740;23.340;2023-08-06T12:30:35;94372.28;;;28.98;57.59
39937;BME280;27803;42.740;23.340;2023-08-06T12:33:01;94357.44;;;28.80;52.39
39937;BME280;27803;42.740;23.340;2023-08-06T12:35:26;94352.22;;;28.83;53.21
39937;BME280;27803;42.740;23.340;2023-08-06T12:37:52;94342.31;;;28.39;49.15
39937;BME280;27803;42.740;23.340;2023-08-06T12:40:20;94352.72;;;28.28;50.92
39937;BME280;27803;42.740;23.340;2023-08-06T12:42:45;94347.34;;;28.40;50.86
39937;BME280;27803;42.740;23.340;2023-08-06T12:45:11;94354.97;;;28.50;50.33
39937;BME280;27803;42.740;23.340;2023-08-06T12:47:36;94349.03;;;28.57;52.06